FIN4RL EFHK-LKPR
Flight info
| Callsign | FIN4RL |
|---|---|
| Flight time | N/A |
| Altitude | 38000 |
| Route | VALOX Y117 ROSAX DCT ANFEV DCT PENOR DCT LUXAL DCT LATAG P861 RASAN DCT ASTEL DCT GOLOP |
| Aircraft | E190/M-SDE3GILORVW/S |
Departure
| Time | 2026-04-22 16:44 |
|---|---|
| Airport | Helsinki Vantaa Airport (EFHK) |
Arrival
| Time | N/A |
|---|---|
| Airport | Václav Havel Airport Prague (LKPR) |
| Time | Latitude | Longitude | Altitude | Speed | Heading |
|---|---|---|---|---|---|
| 2026-04-22 16:19 | 60.31720 | 24.95707 | 176 ft | 0 kts | 2° |
| 2026-04-22 16:38 | 60.31721 | 24.95707 | 176 ft | 0 kts | 2° |
| 2026-04-22 16:39 | 60.31722 | 24.95708 | 176 ft | 0 kts | 16° |
| 2026-04-22 16:39 | 60.31724 | 24.95721 | 176 ft | 1 kts | 101° |
| 2026-04-22 16:39 | 60.31692 | 24.95717 | 176 ft | 8 kts | 198° |
| 2026-04-22 16:39 | 60.31664 | 24.95662 | 176 ft | 5 kts | 271° |
| 2026-04-22 16:40 | 60.31679 | 24.95586 | 176 ft | 6 kts | 307° |
| 2026-04-22 16:40 | 60.31704 | 24.95516 | 176 ft | 6 kts | 283° |
| 2026-04-22 16:40 | 60.31670 | 24.95388 | 178 ft | 6 kts | 227° |
| 2026-04-22 16:41 | 60.31633 | 24.95308 | 180 ft | 9 kts | 228° |
| 2026-04-22 16:41 | 60.31573 | 24.95175 | 179 ft | 16 kts | 227° |
| 2026-04-22 16:41 | 60.31477 | 24.94966 | 174 ft | 24 kts | 226° |
| 2026-04-22 16:41 | 60.31349 | 24.94685 | 163 ft | 29 kts | 228° |
| 2026-04-22 16:42 | 60.31162 | 24.94266 | 163 ft | 30 kts | 227° |
| 2026-04-22 16:42 | 60.31070 | 24.94068 | 163 ft | 23 kts | 228° |
| 2026-04-22 16:42 | 60.31037 | 24.93874 | 162 ft | 15 kts | 288° |
| 2026-04-22 16:42 | 60.31113 | 24.93721 | 160 ft | 16 kts | 345° |
| 2026-04-22 16:43 | 60.31194 | 24.93777 | 158 ft | 0 kts | 45° |
| 2026-04-22 16:43 | 60.31196 | 24.93782 | 158 ft | 0 kts | 44° |
| 2026-04-22 16:43 | 60.31199 | 24.93789 | 158 ft | 1 kts | 43° |
| 2026-04-22 16:43 | 60.31281 | 24.93957 | 159 ft | 53 kts | 46° |
| 2026-04-22 16:44 | 60.31725 | 24.94937 | 180 ft | 134 kts | 46° |
| 2026-04-22 16:44 | 60.32470 | 24.96608 | 473 ft | 174 kts | 43° |
| 2026-04-22 16:44 | 60.33290 | 24.98498 | 1303 ft | 189 kts | 41° |
| 2026-04-22 16:44 | 60.34179 | 25.00473 | 2210 ft | 194 kts | 38° |
| 2026-04-22 16:45 | 60.35093 | 25.02441 | 3139 ft | 197 kts | 39° |
| 2026-04-22 16:45 | 60.36023 | 25.04461 | 3958 ft | 205 kts | 40° |
| 2026-04-22 16:45 | 60.36989 | 25.06577 | 4781 ft | 212 kts | 40° |
| 2026-04-22 16:45 | 60.38005 | 25.08812 | 5558 ft | 224 kts | 41° |
| 2026-04-22 16:46 | 60.39227 | 25.10782 | 6156 ft | 235 kts | 16° |
| 2026-04-22 16:46 | 60.40847 | 25.10764 | 7074 ft | 242 kts | 340° |
| 2026-04-22 16:46 | 60.42122 | 25.08568 | 8147 ft | 257 kts | 307° |
| 2026-04-22 16:46 | 60.42521 | 25.05019 | 9224 ft | 278 kts | 274° |
| 2026-04-22 16:47 | 60.41854 | 25.01284 | 10108 ft | 305 kts | 243° |
| 2026-04-22 16:47 | 60.40190 | 24.98396 | 10862 ft | 334 kts | 211° |
| 2026-04-22 16:47 | 60.37926 | 24.97196 | 11478 ft | 355 kts | 190° |
| 2026-04-22 16:47 | 60.35426 | 24.96647 | 12057 ft | 368 kts | 189° |
| 2026-04-22 16:48 | 60.32863 | 24.96094 | 12667 ft | 379 kts | 191° |
| 2026-04-22 16:48 | 60.30354 | 24.94673 | 13340 ft | 376 kts | 211° |
| 2026-04-22 16:48 | 60.28077 | 24.92126 | 14093 ft | 374 kts | 220° |
| 2026-04-22 16:48 | 60.25951 | 24.89295 | 14840 ft | 375 kts | 223° |
| 2026-04-22 16:49 | 60.23809 | 24.86270 | 15516 ft | 381 kts | 224° |
| 2026-04-22 16:49 | 60.21642 | 24.83148 | 16178 ft | 386 kts | 225° |
| 2026-04-22 16:49 | 60.19451 | 24.79971 | 16813 ft | 393 kts | 225° |
| 2026-04-22 16:49 | 60.17256 | 24.76789 | 17474 ft | 399 kts | 225° |
| 2026-04-22 16:50 | 60.14994 | 24.73513 | 18097 ft | 405 kts | 226° |
| 2026-04-22 16:50 | 60.12694 | 24.70184 | 18691 ft | 411 kts | 226° |
| 2026-04-22 16:50 | 60.10403 | 24.66876 | 19366 ft | 414 kts | 225° |
| 2026-04-22 16:50 | 60.08069 | 24.63511 | 20024 ft | 418 kts | 225° |
| 2026-04-22 16:51 | 60.05715 | 24.60122 | 20664 ft | 422 kts | 225° |
| 2026-04-22 16:51 | 60.03320 | 24.56684 | 21327 ft | 425 kts | 225° |
| 2026-04-22 16:51 | 60.00917 | 24.53237 | 21945 ft | 428 kts | 225° |
| 2026-04-22 16:51 | 59.98511 | 24.49793 | 22561 ft | 431 kts | 225° |
| 2026-04-22 16:52 | 59.96084 | 24.46324 | 23150 ft | 435 kts | 225° |
| 2026-04-22 16:52 | 59.93620 | 24.42809 | 23647 ft | 440 kts | 225° |
| 2026-04-22 16:52 | 59.91127 | 24.39260 | 24176 ft | 445 kts | 224° |
| 2026-04-22 16:52 | 59.88656 | 24.35759 | 24434 ft | 429 kts | 225° |
| 2026-04-22 16:53 | 59.86259 | 24.32364 | 24353 ft | 413 kts | 224° |
| 2026-04-22 16:53 | 59.83985 | 24.29144 | 24302 ft | 397 kts | 224° |
| 2026-04-22 16:53 | 59.81780 | 24.26030 | 24251 ft | 381 kts | 225° |
| 2026-04-22 16:53 | 59.79660 | 24.23039 | 24197 ft | 367 kts | 225° |
| 2026-04-22 16:54 | 59.77647 | 24.20201 | 24140 ft | 354 kts | 225° |
| 2026-04-22 16:54 | 59.75661 | 24.17411 | 24088 ft | 340 kts | 226° |
| 2026-04-22 16:54 | 59.73801 | 24.14796 | 24032 ft | 327 kts | 226° |
| 2026-04-22 16:54 | 59.71985 | 24.12230 | 23973 ft | 314 kts | 228° |
| 2026-04-22 16:55 | 59.70239 | 24.09756 | 23916 ft | 301 kts | 228° |
| 2026-04-22 16:55 | 59.68594 | 24.07428 | 23845 ft | 289 kts | 229° |
| 2026-04-22 16:55 | 59.66996 | 24.05171 | 23776 ft | 275 kts | 230° |
| 2026-04-22 16:55 | 59.65478 | 24.03023 | 23663 ft | 264 kts | 231° |
| 2026-04-22 16:56 | 59.64024 | 24.00875 | 23261 ft | 267 kts | 233° |
| 2026-04-22 16:56 | 59.62591 | 23.98512 | 22847 ft | 266 kts | 238° |
| 2026-04-22 16:56 | 59.61295 | 23.96055 | 22666 ft | 253 kts | 244° |
| 2026-04-22 16:56 | 59.60169 | 23.93510 | 22417 ft | 241 kts | 252° |
| 2026-04-22 16:57 | 59.59264 | 23.90810 | 22025 ft | 232 kts | 262° |
| 2026-04-22 16:57 | 59.58643 | 23.87998 | 21731 ft | 215 kts | 275° |
| 2026-04-22 16:57 | 59.58357 | 23.85300 | 21468 ft | 195 kts | 289° |
| 2026-04-22 16:57 | 59.58429 | 23.82775 | 21093 ft | 177 kts | 304° |
| 2026-04-22 16:58 | 59.58866 | 23.80680 | 20852 ft | 153 kts | 322° |
| 2026-04-22 16:58 | 59.59576 | 23.79353 | 20608 ft | 136 kts | 342° |
| 2026-04-22 16:58 | 59.60480 | 23.78949 | 20162 ft | 141 kts | 3° |
| 2026-04-22 16:58 | 59.61418 | 23.79653 | 19854 ft | 155 kts | 26° |
| 2026-04-22 16:59 | 59.62104 | 23.81453 | 19620 ft | 179 kts | 51° |
| 2026-04-22 16:59 | 59.62301 | 23.84079 | 19292 ft | 215 kts | 77° |
| 2026-04-22 16:59 | 59.61831 | 23.87153 | 18890 ft | 253 kts | 106° |
| 2026-04-22 16:59 | 59.60640 | 23.89885 | 18637 ft | 275 kts | 136° |
| 2026-04-22 17:00 | 59.58906 | 23.91552 | 18359 ft | 286 kts | 168° |
| 2026-04-22 17:00 | 59.55257 | 23.90315 | 17757 ft | 255 kts | 236° |
| 2026-04-22 17:00 | 59.54231 | 23.87816 | 17426 ft | 215 kts | 272° |
| 2026-04-22 17:01 | 59.54121 | 23.85261 | 17066 ft | 171 kts | 309° |
| 2026-04-22 17:01 | 59.54788 | 23.83733 | 16793 ft | 140 kts | 348° |
| 2026-04-22 17:01 | 59.55730 | 23.84010 | 16447 ft | 157 kts | 27° |
| 2026-04-22 17:01 | 59.56313 | 23.86073 | 16116 ft | 201 kts | 68° |
| 2026-04-22 17:02 | 59.56001 | 23.89029 | 15813 ft | 246 kts | 110° |
| 2026-04-22 17:02 | 59.54716 | 23.91414 | 15529 ft | 270 kts | 154° |
| 2026-04-22 17:02 | 59.52865 | 23.92073 | 15149 ft | 273 kts | 198° |
| 2026-04-22 17:02 | 59.51274 | 23.90652 | 14919 ft | 237 kts | 244° |
| 2026-04-22 17:03 | 59.50641 | 23.88148 | 14663 ft | 183 kts | 292° |
| 2026-04-22 17:03 | 59.51110 | 23.86240 | 14189 ft | 152 kts | 339° |
| 2026-04-22 17:03 | 59.52109 | 23.86391 | 13906 ft | 164 kts | 30° |
| 2026-04-22 17:03 | 59.52605 | 23.88642 | 13650 ft | 212 kts | 81° |
| 2026-04-22 17:04 | 59.51955 | 23.91524 | 13262 ft | 256 kts | 133° |
| 2026-04-22 17:04 | 59.50337 | 23.92988 | 12978 ft | 263 kts | 185° |
| 2026-04-22 17:04 | 59.48709 | 23.92056 | 12727 ft | 233 kts | 237° |
| 2026-04-22 17:04 | 59.48050 | 23.89619 | 12334 ft | 187 kts | 291° |
| 2026-04-22 17:05 | 59.48605 | 23.87773 | 12000 ft | 152 kts | 345° |
| 2026-04-22 17:05 | 59.49586 | 23.88253 | 11749 ft | 170 kts | 41° |
| 2026-04-22 17:05 | 59.49853 | 23.90741 | 11366 ft | 221 kts | 96° |
| 2026-04-22 17:05 | 59.48861 | 23.93233 | 11049 ft | 251 kts | 153° |
| 2026-04-22 17:06 | 59.47181 | 23.93598 | 10823 ft | 240 kts | 211° |
| 2026-04-22 17:06 | 59.46061 | 23.91659 | 10481 ft | 202 kts | 269° |
| 2026-04-22 17:06 | 59.46227 | 23.89374 | 10124 ft | 161 kts | 326° |